Emmanuel Tomasos — C6SS7 — position and weather

sailwx.info

Track history (hours):
 
Tides and Currents Weather Stations Pressure Air Temp Water Temp Dewpoint Dewpoint Depression Visibility Wind Speed Wind Dir Waves Ship Positions

Emmanuel Tomasos

Last reported at 2017-Jan-23 07:29 UTC. Time now 2017-Jan-23 08:33 UTC.
Position S 24°06' W 046°13'.

Length 182 m; draft 8.2 m.

Type: Tanker. MMSI: 311459000.

Date/timePositionNaut miles runAvg speedWind from/ knotsBaromVisibWave heightAir tempDewpointWater temp
2017-Jan-23 07:29S 24°06' W 046°13'0 0.0
2017-Jan-23 06:29S 24°06' W 046°13'0 0.0
2017-Jan-23 05:29S 24°06' W 046°13'0 0.0
2017-Jan-23 04:29S 24°06' W 046°13'0 0.1
2017-Jan-23 03:17S 24°06' W 046°13'0 0.1
2017-Jan-23 02:29S 24°06' W 046°13'0 0.1
2017-Jan-23 01:23S 24°06' W 046°13'0 0.0
2017-Jan-23 00:23S 24°06' W 046°13'0 0.1
2017-Jan-22 23:29S 24°06' W 046°13'0 0.0
2017-Jan-22 22:17S 24°06' W 046°13'0 0.1
2017-Jan-22 21:32S 24°06' W 046°13'0 0.0
2017-Jan-22 20:29S 24°06' W 046°13'0 0.0
2017-Jan-22 19:23S 24°06' W 046°13'0 0.0
2017-Jan-22 18:23S 24°06' W 046°13'0 0.0
2017-Jan-22 17:29S 24°06' W 046°13'0 0.0
2017-Jan-22 16:29S 24°06' W 046°13'0 0.0
2017-Jan-22 15:29S 24°06' W 046°13'0 0.0
2017-Jan-22 14:26S 24°06' W 046°13'0 0.0
2017-Jan-22 13:23S 24°06' W 046°13'0 0.0
2017-Jan-22 12:29S 24°06' W 046°13'0 0.0
2017-Jan-22 11:32S 24°06' W 046°13'0 0.0
2017-Jan-22 10:29S 24°06' W 046°13'0 0.0
2017-Jan-22 09:29S 24°06' W 046°13'0 0.0
2017-Jan-22 08:29S 24°06' W 046°13'0 0.0
2017-Jan-22 07:29S 24°06' W 046°13'5 5.4
2017-Jan-22 06:33S 24°07' W 046°07'  
2017-Jan-19 18:07S 23°04' W 043°10'611.1
2017-Jan-19 17:33S 22°58' W 043°09'9 8.7
2017-Jan-19 16:34S 22°49' W 043°09'1 0.0
2017-Jan-18 17:31S 22°48' W 043°09'0 0.0
2017-Jan-18 16:31S 22°48' W 043°09'0 0.0
2017-Jan-18 15:13S 22°48' W 043°09'0 0.0
2017-Jan-18 14:07S 22°48' W 043°09'1 1.4
2017-Jan-18 13:33S 22°49' W 043°09'8 8.3
2017-Jan-18 12:33S 22°57' W 043°08'8 8.1
2017-Jan-18 11:33S 23°05' W 043°05'1 0.3
2017-Jan-18 09:28S 23°06' W 043°05'0 0.0
2017-Jan-18 08:28S 23°06' W 043°05'0 0.0
2017-Jan-18 07:28S 23°06' W 043°05'0 0.0
2017-Jan-18 05:10S 23°06' W 043°05'0 0.0
2017-Jan-18 04:28S 23°06' W 043°05'0 0.0
2017-Jan-18 03:33S 23°06' W 043°05'0 0.0
2017-Jan-18 02:33S 23°06' W 043°05'0 0.0
2017-Jan-18 01:33S 23°06' W 043°05'0 0.0
2017-Jan-18 00:33S 23°06' W 043°05'0 0.0
2017-Jan-17 23:33S 23°06' W 043°05'0 0.0
2017-Jan-17 22:33S 23°06' W 043°05'0 0.0
2017-Jan-17 21:33S 23°06' W 043°05'0 0.0
2017-Jan-17 20:33S 23°05' W 043°05'2 2.4
2017-Jan-17 19:33S 23°08' W 043°05'4 0.2
2017-Jan-17 03:33S 23°09' W 043°08'  
Track history (hours):
 
Tides and Currents Weather Stations Pressure Air Temp Water Temp Dewpoint Dewpoint Depression Visibility Wind Speed Wind Dir Waves Ship Positions

Emmanuel Tomasos

Last reported at 2017-Jan-23 07:29 UTC. Time now 2017-Jan-23 08:33 UTC.
Position S 24°06' W 046°13'.

Length 182 m; draft 8.2 m.

Type: Tanker. MMSI: 311459000.

Date/timePositionNaut miles runAvg speedWind from/ knotsBaromVisibWave heightAir tempDewpointWater temp
2017-Jan-23 07:29S 24°06' W 046°13'0 0.0
2017-Jan-23 06:29S 24°06' W 046°13'0 0.0
2017-Jan-23 05:29S 24°06' W 046°13'0 0.0
2017-Jan-23 04:29S 24°06' W 046°13'0 0.1
2017-Jan-23 03:17S 24°06' W 046°13'0 0.1
2017-Jan-23 02:29S 24°06' W 046°13'0 0.1
2017-Jan-23 01:23S 24°06' W 046°13'0 0.0
2017-Jan-23 00:23S 24°06' W 046°13'0 0.1
2017-Jan-22 23:29S 24°06' W 046°13'0 0.0
2017-Jan-22 22:17S 24°06' W 046°13'0 0.1
2017-Jan-22 21:32S 24°06' W 046°13'0 0.0
2017-Jan-22 20:29S 24°06' W 046°13'0 0.0
2017-Jan-22 19:23S 24°06' W 046°13'0 0.0
2017-Jan-22 18:23S 24°06' W 046°13'0 0.0
2017-Jan-22 17:29S 24°06' W 046°13'0 0.0
2017-Jan-22 16:29S 24°06' W 046°13'0 0.0
2017-Jan-22 15:29S 24°06' W 046°13'0 0.0
2017-Jan-22 14:26S 24°06' W 046°13'0 0.0
2017-Jan-22 13:23S 24°06' W 046°13'0 0.0
2017-Jan-22 12:29S 24°06' W 046°13'0 0.0
2017-Jan-22 11:32S 24°06' W 046°13'0 0.0
2017-Jan-22 10:29S 24°06' W 046°13'0 0.0
2017-Jan-22 09:29S 24°06' W 046°13'0 0.0
2017-Jan-22 08:29S 24°06' W 046°13'0 0.0
2017-Jan-22 07:29S 24°06' W 046°13'5 5.4
2017-Jan-22 06:33S 24°07' W 046°07'  
2017-Jan-19 18:07S 23°04' W 043°10'611.1
2017-Jan-19 17:33S 22°58' W 043°09'9 8.7
2017-Jan-19 16:34S 22°49' W 043°09'1 0.0
2017-Jan-18 17:31S 22°48' W 043°09'0 0.0
2017-Jan-18 16:31S 22°48' W 043°09'0 0.0
2017-Jan-18 15:13S 22°48' W 043°09'0 0.0
2017-Jan-18 14:07S 22°48' W 043°09'1 1.4
2017-Jan-18 13:33S 22°49' W 043°09'8 8.3
2017-Jan-18 12:33S 22°57' W 043°08'8 8.1
2017-Jan-18 11:33S 23°05' W 043°05'1 0.3
2017-Jan-18 09:28S 23°06' W 043°05'0 0.0
2017-Jan-18 08:28S 23°06' W 043°05'0 0.0
2017-Jan-18 07:28S 23°06' W 043°05'0 0.0
2017-Jan-18 05:10S 23°06' W 043°05'0 0.0
2017-Jan-18 04:28S 23°06' W 043°05'0 0.0
2017-Jan-18 03:33S 23°06' W 043°05'0 0.0
2017-Jan-18 02:33S 23°06' W 043°05'0 0.0
2017-Jan-18 01:33S 23°06' W 043°05'0 0.0
2017-Jan-18 00:33S 23°06' W 043°05'0 0.0
2017-Jan-17 23:33S 23°06' W 043°05'0 0.0
2017-Jan-17 22:33S 23°06' W 043°05'0 0.0
2017-Jan-17 21:33S 23°06' W 043°05'0 0.0
2017-Jan-17 20:33S 23°05' W 043°05'2 2.4
2017-Jan-17 19:33S 23°08' W 043°05'4 0.2
2017-Jan-17 03:33S 23°09' W 043°08'  

Dump ship's entire track history